Time,TemperatureF,DewpointF,PressureIn,WindDirection,WindDirectionDegrees,WindSpeedMPH,WindSpeedGustMPH,Humidity,HourlyPrecipIn,Conditions,Clouds,dailyrainin,SoftwareType,DateUTC
2013-02-19 00:00:00,26.6,9.1,30.21,NNW,327,2.0,7.0,47,0.00,,,0.00,Wunderground v.1.15,2013-02-19 05:00:00,
2013-02-19 00:01:00,26.5,9.0,30.21,NNW,344,4.0,6.0,47,0.00,,,0.00,Wunderground v.1.15,2013-02-19 05:01:00,
2013-02-19 00:06:00,26.4,9.3,30.21,NNW,338,6.0,8.0,48,0.00,,,0.00,Wunderground v.1.15,2013-02-19 05:06:00,
2013-02-19 00:11:00,26.5,9.9,30.21,NW,321,7.0,9.0,49,0.00,,,0.00,Wunderground v.1.15,2013-02-19 05:11:00,
2013-02-19 00:16:00,26.6,10.0,30.21,NNW,333,9.0,11.0,49,0.00,,,0.00,Wunderground v.1.15,2013-02-19 05:16:00,
2013-02-19 00:21:00,26.8,10.2,30.21,NW,320,5.0,8.0,49,0.00,,,0.00,Wunderground v.1.15,2013-02-19 05:21:00,
2013-02-19 00:26:00,26.9,10.3,30.21,NW,326,7.0,10.0,49,0.00,,,0.00,Wunderground v.1.15,2013-02-19 05:26:00,
2013-02-19 00:32:00,26.9,10.3,30.22,NW,309,9.0,11.0,49,0.00,,,0.00,Wunderground v.1.15,2013-02-19 05:32:00,
2013-02-19 00:37:00,27.0,9.4,30.22,NW,325,3.0,11.0,47,0.00,,,0.00,Wunderground v.1.15,2013-02-19 05:37:00,
2013-02-19 00:42:00,27.0,9.4,30.22,NNW,331,5.0,7.0,47,0.00,,,0.00,Wunderground v.1.15,2013-02-19 05:42:00,
2013-02-19 00:47:00,26.9,10.3,30.21,NNW,334,6.0,7.0,49,0.00,,,0.00,Wunderground v.1.15,2013-02-19 05:47:00,
2013-02-19 00:52:00,27.0,9.9,30.21,NW,322,5.0,6.0,48,0.00,,,0.00,Wunderground v.1.15,2013-02-19 05:52:00,
2013-02-19 00:57:00,27.0,10.4,30.21,NW,323,4.0,7.0,49,0.00,,,0.00,Wunderground v.1.15,2013-02-19 05:57:00,
2013-02-19 01:02:00,27.0,9.9,30.21,NNW,331,4.0,6.0,48,0.00,,,0.00,Wunderground v.1.15,2013-02-19 06:02:00,
2013-02-19 01:07:00,26.9,10.3,30.21,NW,316,4.0,8.0,49,0.00,,,0.00,Wunderground v.1.15,2013-02-19 06:07:00,
2013-02-19 01:12:00,26.9,9.8,30.21,NW,308,4.0,7.0,48,0.00,,,0.00,Wunderground v.1.15,2013-02-19 06:12:00,
2013-02-19 01:17:00,26.8,9.7,30.21,NW,315,6.0,7.0,48,0.00,,,0.00,Wunderground v.1.15,2013-02-19 06:17:00,
2013-02-19 03:09:00,29.5,14.5,30.20,NW,319,10.0,13.0,53,0.00,,,0.00,Wunderground v.1.15,2013-02-19 08:09:00,
2013-02-19 03:14:00,29.6,14.5,30.20,NW,306,8.0,9.0,53,0.00,,,0.00,Wunderground v.1.15,2013-02-19 08:14:00,
2013-02-19 03:19:00,29.5,14.9,30.19,NNW,342,5.0,12.0,54,0.00,,,0.00,Wunderground v.1.15,2013-02-19 08:19:00,
2013-02-19 03:24:00,29.4,14.8,30.19,NW,313,3.0,8.0,54,0.00,,,0.00,Wunderground v.1.15,2013-02-19 08:24:00,
2013-02-19 03:29:00,29.4,15.2,30.20,WNW,296,6.0,8.0,55,0.00,,,0.00,Wunderground v.1.15,2013-02-19 08:29:00,
2013-02-19 03:34:00,29.3,15.5,30.19,NNW,334,4.0,7.0,56,0.00,,,0.00,Wunderground v.1.15,2013-02-19 08:34:00,
2013-02-19 03:39:00,29.2,15.8,30.19,NNW,338,5.0,8.0,57,0.00,,,0.00,Wunderground v.1.15,2013-02-19 08:39:00,
2013-02-19 03:44:00,29.2,16.2,30.19,NW,322,6.0,9.0,58,0.00,,,0.00,Wunderground v.1.15,2013-02-19 08:44:00,
2013-02-19 03:49:00,29.2,16.2,30.19,WNW,302,9.0,9.0,58,0.00,,,0.00,Wunderground v.1.15,2013-02-19 08:49:00,
2013-02-19 03:55:00,29.2,16.6,30.19,NNW,332,6.0,6.0,59,0.00,,,0.00,Wunderground v.1.15,2013-02-19 08:55:00,
2013-02-19 04:00:00,29.2,17.0,30.19,NW,306,7.0,8.0,60,0.00,,,0.00,Wunderground v.1.15,2013-02-19 09:00:00,
2013-02-19 04:05:00,29.2,17.0,30.19,NNW,335,7.0,7.0,60,0.00,,,0.00,Wunderground v.1.15,2013-02-19 09:05:00,
2013-02-19 04:10:00,29.2,17.4,30.19,NNW,344,4.0,7.0,61,0.00,,,0.00,Wunderground v.1.15,2013-02-19 09:10:00,
2013-02-19 04:15:00,29.2,17.4,30.19,North,355,5.0,6.0,61,0.00,,,0.00,Wunderground v.1.15,2013-02-19 09:15:00,
2013-02-19 04:20:00,29.1,17.3,30.19,NNW,342,1.0,7.0,61,0.00,,,0.00,Wunderground v.1.15,2013-02-19 09:20:00,
2013-02-19 04:25:00,29.1,17.7,30.18,NNW,341,2.0,5.0,62,0.00,,,0.00,Wunderground v.1.15,2013-02-19 09:25:00,
2013-02-19 04:30:00,29.2,18.2,30.18,NNW,333,2.0,5.0,63,0.00,,,0.00,Wunderground v.1.15,2013-02-19 09:30:00,
2013-02-19 04:35:00,29.2,17.4,30.19,NNW,327,1.0,3.0,61,0.00,,,0.00,Wunderground v.1.15,2013-02-19 09:35:00,
2013-02-19 04:40:00,29.0,17.6,30.19,NW,313,2.0,3.0,62,0.00,,,0.00,Wunderground v.1.15,2013-02-19 09:40:00,
2013-02-19 04:45:00,28.9,17.5,30.19,WNW,298,2.0,4.0,62,0.00,,,0.00,Wunderground v.1.15,2013-02-19 09:45:00,
2013-02-19 04:50:00,28.7,17.3,30.19,NW,304,4.0,4.0,62,0.00,,,0.00,Wunderground v.1.15,2013-02-19 09:50:00,
2013-02-19 04:55:00,28.6,17.6,30.19,NW,306,4.0,6.0,63,0.00,,,0.00,Wunderground v.1.15,2013-02-19 09:55:00,
2013-02-19 05:00:00,28.7,17.7,30.19,WNW,298,4.0,5.0,63,0.00,,,0.00,Wunderground v.1.15,2013-02-19 10:00:00,
2013-02-19 05:05:00,28.8,17.8,30.19,WNW,296,4.0,6.0,63,0.00,,,0.00,Wunderground v.1.15,2013-02-19 10:05:00,
2013-02-19 05:10:00,28.7,17.7,30.20,WNW,296,4.0,6.0,63,0.00,,,0.00,Wunderground v.1.15,2013-02-19 10:10:00,
2013-02-19 05:15:00,28.7,17.7,30.20,WNW,282,7.0,7.0,63,0.00,,,0.00,Wunderground v.1.15,2013-02-19 10:15:00,
2013-02-19 05:20:00,28.7,18.1,30.20,WNW,286,6.0,7.0,64,0.00,,,0.00,Wunderground v.1.15,2013-02-19 10:20:00,
2013-02-19 05:25:00,28.7,18.1,30.20,WNW,292,4.0,7.0,64,0.00,,,0.00,Wunderground v.1.15,2013-02-19 10:25:00,
2013-02-19 05:30:00,28.7,18.1,30.20,WNW,297,6.0,6.0,64,0.00,,,0.00,Wunderground v.1.15,2013-02-19 10:30:00,
2013-02-19 05:35:00,28.8,18.1,30.20,WNW,292,5.0,8.0,64,0.00,,,0.00,Wunderground v.1.15,2013-02-19 10:35:00,
2013-02-19 05:40:00,28.9,18.2,30.20,WNW,296,4.0,6.0,64,0.00,,,0.00,Wunderground v.1.15,2013-02-19 10:40:00,
2013-02-19 05:45:00,28.9,18.2,30.20,NW,310,4.0,7.0,64,0.00,,,0.00,Wunderground v.1.15,2013-02-19 10:45:00,
2013-02-19 05:50:00,28.9,18.2,30.19,NW,305,5.0,6.0,64,0.00,,,0.00,Wunderground v.1.15,2013-02-19 10:50:00,
2013-02-19 05:56:00,29.0,18.7,30.19,WNW,296,4.0,6.0,65,0.00,,,0.00,Wunderground v.1.15,2013-02-19 10:56:00,
2013-02-19 06:00:00,29.1,18.4,30.19,WNW,286,4.0,5.0,64,0.00,,,0.00,Wunderground v.1.15,2013-02-19 11:00:00,
2013-02-19 06:05:00,29.2,18.5,30.19,WNW,290,5.0,6.0,64,0.00,,,0.00,Wunderground v.1.15,2013-02-19 11:05:00,
2013-02-19 06:11:00,29.2,18.5,30.19,WNW,295,4.0,5.0,64,0.00,,,0.00,Wunderground v.1.15,2013-02-19 11:11:00,
2013-02-19 06:16:00,29.2,18.9,30.19,NW,317,4.0,6.0,65,0.00,,,0.00,Wunderground v.1.15,2013-02-19 11:16:00,
2013-02-19 06:21:00,29.2,18.9,30.19,WNW,289,5.0,8.0,65,0.00,,,0.00,Wunderground v.1.15,2013-02-19 11:21:00,
2013-02-19 06:26:00,29.3,19.0,30.19,WNW,285,6.0,8.0,65,0.00,,,0.00,Wunderground v.1.15,2013-02-19 11:26:00,
2013-02-19 06:31:00,29.3,19.0,30.19,WNW,295,5.0,6.0,65,0.00,,,0.00,Wunderground v.1.15,2013-02-19 11:31:00,
2013-02-19 06:36:00,29.3,19.0,30.18,West,281,5.0,6.0,65,0.00,,,0.00,Wunderground v.1.15,2013-02-19 11:36:00,
2013-02-19 06:41:00,29.4,19.4,30.18,WNW,300,6.0,6.0,66,0.00,,,0.00,Wunderground v.1.15,2013-02-19 11:41:00,
2013-02-19 06:46:00,29.6,20.0,30.18,WNW,300,4.0,7.0,67,0.00,,,0.00,Wunderground v.1.15,2013-02-19 11:46:00,
2013-02-19 06:51:00,29.9,20.3,30.17,NW,304,4.0,5.0,67,0.00,,,0.00,Wunderground v.1.15,2013-02-19 11:51:00,
2013-02-19 06:56:00,30.2,20.9,30.18,WNW,294,3.0,6.0,68,0.00,,,0.00,Wunderground v.1.15,2013-02-19 11:56:00,
2013-02-19 07:01:00,30.5,20.8,30.18,WNW,285,3.0,4.0,67,0.00,,,0.00,Wunderground v.1.15,2013-02-19 12:01:00,
2013-02-19 07:06:00,30.8,21.1,30.18,WNW,285,2.0,4.0,67,0.00,,,0.00,Wunderground v.1.15,2013-02-19 12:06:00,
2013-02-19 07:11:00,31.1,21.4,30.18,WNW,284,2.0,3.0,67,0.00,,,0.00,Wunderground v.1.15,2013-02-19 12:11:00,
2013-02-19 07:16:00,31.4,21.7,30.18,WNW,284,1.0,3.0,67,0.00,,,0.00,Wunderground v.1.15,2013-02-19 12:16:00,
2013-02-19 07:21:00,31.7,22.0,30.18,WNW,284,1.0,2.0,67,0.00,,,0.00,Wunderground v.1.15,2013-02-19 12:21:00,
2013-02-19 07:26:00,32.1,22.4,30.18,WNW,284,2.0,3.0,67,0.00,,,0.00,Wunderground v.1.15,2013-02-19 12:26:00,
2013-02-19 07:31:00,32.3,22.6,30.17,WNW,282,1.0,2.0,67,0.00,,,0.00,Wunderground v.1.15,2013-02-19 12:31:00,
2013-02-19 07:36:00,32.6,22.8,30.17,WNW,282,2.0,3.0,67,0.00,,,0.00,Wunderground v.1.15,2013-02-19 12:36:00,
2013-02-19 07:41:00,32.9,23.1,30.16,West,281,2.0,3.0,67,0.00,,,0.00,Wunderground v.1.15,2013-02-19 12:41:00,
2013-02-19 07:46:00,33.0,23.6,30.16,West,260,3.0,3.0,68,0.00,,,0.00,Wunderground v.1.15,2013-02-19 12:46:00,
2013-02-19 07:51:00,33.2,23.4,30.16,WSW,248,3.0,3.0,67,0.00,,,0.00,Wunderground v.1.15,2013-02-19 12:51:00,
2013-02-19 07:56:00,33.6,24.2,30.15,South,189,4.0,5.0,68,0.00,,,0.00,Wunderground v.1.15,2013-02-19 12:56:00,
2013-02-19 08:01:00,33.4,25.3,30.16,SSW,207,5.0,5.0,72,0.00,,,0.00,Wunderground v.1.15,2013-02-19 13:01:00,
2013-02-19 08:06:00,32.7,25.0,30.16,SW,217,5.0,6.0,73,0.00,,,0.00,Wunderground v.1.15,2013-02-19 13:06:00,
2013-02-19 08:11:00,32.5,25.1,30.16,SW,219,6.0,6.0,74,0.00,,,0.00,Wunderground v.1.15,2013-02-19 13:11:00,
2013-02-19 08:17:00,32.6,25.2,30.16,SW,217,6.0,7.0,74,0.00,,,0.00,Wunderground v.1.15,2013-02-19 13:17:00,
2013-02-19 08:22:00,32.6,25.2,30.16,SW,220,5.0,6.0,74,0.00,,,0.00,Wunderground v.1.15,2013-02-19 13:22:00,
2013-02-19 08:27:00,32.8,25.7,30.16,SW,223,4.0,6.0,75,0.00,,,0.00,Wunderground v.1.15,2013-02-19 13:27:00,
2013-02-19 08:32:00,33.2,26.5,30.16,SW,223,4.0,5.0,76,0.00,,,0.00,Wunderground v.1.15,2013-02-19 13:32:00,
2013-02-19 08:37:00,33.3,26.5,30.16,SW,219,4.0,5.0,76,0.00,,,0.00,Wunderground v.1.15,2013-02-19 13:37:00,
2013-02-19 08:42:00,33.5,27.1,30.16,SW,218,3.0,4.0,77,0.00,,,0.00,Wunderground v.1.15,2013-02-19 13:42:00,
2013-02-19 08:47:00,34.0,27.9,30.16,SW,218,4.0,5.0,78,0.00,,,0.00,Wunderground v.1.15,2013-02-19 13:47:00,
2013-02-19 08:52:00,34.4,28.2,30.15,SW,215,5.0,5.0,78,0.00,,,0.00,Wunderground v.1.15,2013-02-19 13:52:00,
2013-02-19 08:57:00,34.7,28.9,30.15,SSW,203,5.0,5.0,79,0.00,,,0.00,Wunderground v.1.15,2013-02-19 13:57:00,
2013-02-19 09:02:00,34.9,29.0,30.15,SSW,204,5.0,6.0,79,0.00,,,0.00,Wunderground v.1.15,2013-02-19 14:02:00,
2013-02-19 09:07:00,35.8,29.9,30.15,SW,231,7.0,9.0,79,0.00,,,0.00,Wunderground v.1.15,2013-02-19 14:07:00,
2013-02-19 09:12:00,36.8,29.9,30.15,SW,225,6.0,8.0,76,0.00,,,0.00,Wunderground v.1.15,2013-02-19 14:12:00,
2013-02-19 09:17:00,37.3,30.7,30.14,SW,223,6.0,9.0,77,0.00,,,0.00,Wunderground v.1.15,2013-02-19 14:17:00,
2013-02-19 09:22:00,38.0,31.1,30.15,WSW,240,6.0,8.0,76,0.00,,,0.00,Wunderground v.1.15,2013-02-19 14:22:00,
2013-02-19 09:27:00,38.6,31.4,30.15,WSW,246,6.0,10.0,75,0.00,,,0.00,Wunderground v.1.15,2013-02-19 14:27:00,
2013-02-19 09:32:00,39.2,31.6,30.15,WSW,248,9.0,12.0,74,0.00,,,0.00,Wunderground v.1.15,2013-02-19 14:32:00,
2013-02-19 09:37:00,39.7,31.8,30.15,West,259,9.0,12.0,73,0.00,,,0.00,Wunderground v.1.15,2013-02-19 14:37:00,
2013-02-19 09:42:00,40.2,31.9,30.15,WSW,254,11.0,12.0,72,0.00,,,0.00,Wunderground v.1.15,2013-02-19 14:42:00,
2013-02-19 09:47:00,40.3,32.0,30.14,WSW,246,9.0,12.0,72,0.00,,,0.00,Wunderground v.1.15,2013-02-19 14:47:00,
2013-02-19 09:52:00,40.3,32.0,30.14,SW,234,9.0,10.0,72,0.00,,,0.00,Wunderground v.1.15,2013-02-19 14:52:00,
2013-02-19 09:57:00,40.3,32.3,30.14,SW,234,10.0,12.0,73,0.00,,,0.00,Wunderground v.1.15,2013-02-19 14:57:00,
2013-02-19 10:02:00,40.6,32.6,30.14,SW,236,9.0,12.0,73,0.00,,,0.00,Wunderground v.1.15,2013-02-19 15:02:00,
2013-02-19 10:07:00,40.6,32.6,30.14,SW,235,9.0,12.0,73,0.00,,,0.00,Wunderground v.1.15,2013-02-19 15:07:00,
2013-02-19 10:13:00,40.8,33.2,30.14,SW,235,9.0,10.0,74,0.00,,,0.00,Wunderground v.1.15,2013-02-19 15:13:00,
2013-02-19 10:18:00,40.8,33.5,30.14,WSW,238,10.0,11.0,75,0.00,,,0.00,Wunderground v.1.15,2013-02-19 15:18:00,
2013-02-19 10:23:00,41.0,33.7,30.14,SW,236,10.0,11.0,75,0.00,,,0.00,Wunderground v.1.15,2013-02-19 15:23:00,
2013-02-19 10:28:00,40.9,33.6,30.13,SW,236,10.0,13.0,75,0.00,,,0.00,Wunderground v.1.15,2013-02-19 15:28:00,
2013-02-19 10:33:00,40.8,33.8,30.14,SW,227,12.0,12.0,76,0.00,,,0.01,Wunderground v.1.15,2013-02-19 15:33:00,
2013-02-19 10:38:00,40.1,33.5,30.13,SW,230,10.0,12.0,77,0.00,,,0.01,Wunderground v.1.15,2013-02-19 15:38:00,
2013-02-19 10:43:00,40.1,34.1,30.13,WSW,241,11.0,13.0,79,0.00,,,0.01,Wunderground v.1.15,2013-02-19 15:43:00,
2013-02-19 10:48:00,40.4,34.1,30.13,SW,227,11.0,13.0,78,0.00,,,0.01,Wunderground v.1.15,2013-02-19 15:48:00,
2013-02-19 10:53:00,40.8,34.5,30.13,SW,233,8.0,12.0,78,0.00,,,0.01,Wunderground v.1.15,2013-02-19 15:53:00,
2013-02-19 10:58:00,41.3,35.0,30.13,WSW,239,10.0,13.0,78,0.00,,,0.01,Wunderground v.1.15,2013-02-19 15:58:00,
2013-02-19 11:03:00,41.6,34.9,30.13,WSW,237,10.0,12.0,77,0.00,,,0.01,Wunderground v.1.15,2013-02-19 16:03:00,
2013-02-19 11:08:00,42.1,35.4,30.13,WSW,244,15.0,16.0,77,0.00,,,0.01,Wunderground v.1.15,2013-02-19 16:08:00,
2013-02-19 11:13:00,42.4,35.4,30.12,WSW,242,12.0,17.0,76,0.00,,,0.01,Wunderground v.1.15,2013-02-19 16:13:00,
2013-02-19 11:18:00,42.1,35.1,30.12,WSW,252,12.0,17.0,76,0.00,,,0.01,Wunderground v.1.15,2013-02-19 16:18:00,
2013-02-19 11:23:00,42.2,35.2,30.12,WSW,251,12.0,16.0,76,0.00,,,0.01,Wunderground v.1.15,2013-02-19 16:23:00,
2013-02-19 11:28:00,42.2,35.2,30.12,WSW,252,16.0,17.0,76,0.00,,,0.01,Wunderground v.1.15,2013-02-19 16:28:00,
2013-02-19 11:33:00,42.4,35.4,30.12,WSW,245,16.0,17.0,76,0.00,,,0.01,Wunderground v.1.15,2013-02-19 16:33:00,
2013-02-19 11:38:00,42.4,35.4,30.11,West,261,15.0,19.0,76,0.00,,,0.01,Wunderground v.1.15,2013-02-19 16:38:00,
2013-02-19 11:43:00,42.5,35.8,30.11,WSW,253,13.0,18.0,77,0.00,,,0.01,Wunderground v.1.15,2013-02-19 16:43:00,
2013-02-19 11:48:00,42.7,36.0,30.10,WSW,253,17.0,19.0,77,0.00,,,0.01,Wunderground v.1.15,2013-02-19 16:48:00,
2013-02-19 11:53:00,42.7,36.0,30.10,WSW,250,13.0,17.0,77,0.00,,,0.01,Wunderground v.1.15,2013-02-19 16:53:00,
2013-02-19 11:58:00,42.9,36.2,30.09,SW,234,16.0,22.0,77,0.00,,,0.01,Wunderground v.1.15,2013-02-19 16:58:00,
2013-02-19 12:03:00,41.9,35.5,30.08,SW,232,15.0,20.0,78,0.00,,,0.01,Wunderground v.1.15,2013-02-19 17:03:00,
2013-02-19 12:08:00,41.4,35.4,30.08,WSW,239,14.0,20.0,79,0.00,,,0.01,Wunderground v.1.15,2013-02-19 17:08:00,
2013-02-19 12:13:00,41.2,35.5,30.08,SW,232,13.0,17.0,80,0.00,,,0.01,Wunderground v.1.15,2013-02-19 17:13:00,
2013-02-19 12:18:00,41.1,35.4,30.07,WSW,244,11.0,17.0,80,0.00,,,0.01,Wunderground v.1.15,2013-02-19 17:18:00,
2013-02-19 12:23:00,41.2,35.8,30.07,WSW,244,11.0,14.0,81,0.00,,,0.01,Wunderground v.1.15,2013-02-19 17:23:00,
2013-02-19 12:28:00,41.2,35.5,30.07,WSW,240,16.0,16.0,80,0.00,,,0.01,Wunderground v.1.15,2013-02-19 17:28:00,
2013-02-19 12:33:00,41.3,35.9,30.07,WSW,237,13.0,16.0,81,0.00,,,0.01,Wunderground v.1.15,2013-02-19 17:33:00,
2013-02-19 12:39:00,41.5,36.1,30.07,SW,234,14.0,16.0,81,0.00,,,0.01,Wunderground v.1.15,2013-02-19 17:39:00,
2013-02-19 12:44:00,42.1,36.7,30.06,SW,231,15.0,17.0,81,0.00,,,0.01,Wunderground v.1.15,2013-02-19 17:44:00,
2013-02-19 12:49:00,42.6,36.5,30.06,WSW,238,14.0,17.0,79,0.00,,,0.01,Wunderground v.1.15,2013-02-19 17:49:00,
2013-02-19 12:54:00,42.5,36.4,30.06,SW,236,15.0,19.0,79,0.00,,,0.01,Wunderground v.1.15,2013-02-19 17:54:00,
2013-02-19 12:59:00,41.9,36.2,30.06,WSW,244,16.0,21.0,80,0.00,,,0.01,Wunderground v.1.15,2013-02-19 17:59:00,
2013-02-19 13:04:00,41.6,36.2,30.05,SW,227,13.0,17.0,81,0.00,,,0.01,Wunderground v.1.15,2013-02-19 18:04:00,
2013-02-19 13:09:00,41.3,36.2,30.05,SW,236,14.0,18.0,82,0.00,,,0.01,Wunderground v.1.15,2013-02-19 18:09:00,
2013-02-19 13:14:00,41.5,36.4,30.04,SW,235,14.0,16.0,82,0.00,,,0.01,Wunderground v.1.15,2013-02-19 18:14:00,
2013-02-19 13:19:00,41.7,36.3,30.03,WSW,239,15.0,17.0,81,0.00,,,0.01,Wunderground v.1.15,2013-02-19 18:19:00,
2013-02-19 13:24:00,41.6,36.2,30.04,SW,231,15.0,18.0,81,0.00,,,0.01,Wunderground v.1.15,2013-02-19 18:24:00,
2013-02-19 13:29:00,41.5,36.1,30.03,WSW,242,15.0,18.0,81,0.00,,,0.01,Wunderground v.1.15,2013-02-19 18:29:00,
2013-02-19 13:34:00,41.2,35.8,30.03,WSW,241,14.0,16.0,81,0.00,,,0.01,Wunderground v.1.15,2013-02-19 18:34:00,
2013-02-19 13:39:00,41.0,35.9,30.03,SW,235,13.0,18.0,82,0.00,,,0.01,Wunderground v.1.15,2013-02-19 18:39:00,
2013-02-19 13:44:00,40.8,35.7,30.03,SW,236,13.0,15.0,82,0.00,,,0.01,Wunderground v.1.15,2013-02-19 18:44:00,
2013-02-19 13:49:00,41.1,35.7,30.03,SW,231,13.0,17.0,81,0.00,,,0.01,Wunderground v.1.15,2013-02-19 18:49:00,
2013-02-19 13:54:00,40.6,35.5,30.03,SW,225,13.0,15.0,82,0.00,,,0.01,Wunderground v.1.15,2013-02-19 18:54:00,
2013-02-19 13:59:00,39.9,35.2,30.02,SW,219,12.0,15.0,83,0.00,,,0.01,Wunderground v.1.15,2013-02-19 18:59:00,
2013-02-19 14:04:00,39.6,35.2,30.02,SW,223,12.0,14.0,84,0.00,,,0.01,Wunderground v.1.15,2013-02-19 19:04:00,
2013-02-19 14:09:00,39.6,35.5,30.02,SW,226,12.0,14.0,85,0.00,,,0.01,Wunderground v.1.15,2013-02-19 19:09:00,
2013-02-19 14:14:00,39.8,35.7,30.02,SW,223,13.0,14.0,85,0.00,,,0.01,Wunderground v.1.15,2013-02-19 19:14:00,
2013-02-19 14:19:00,40.2,36.1,30.02,SW,222,12.0,15.0,85,0.00,,,0.01,Wunderground v.1.15,2013-02-19 19:19:00,
2013-02-19 14:24:00,40.4,35.9,30.01,SW,223,10.0,14.0,84,0.00,,,0.01,Wunderground v.1.15,2013-02-19 19:24:00,
2013-02-19 14:29:00,40.3,36.1,30.01,SW,219,10.0,14.0,85,0.00,,,0.01,Wunderground v.1.15,2013-02-19 19:29:00,
2013-02-19 14:34:00,40.1,36.0,30.01,SW,226,11.0,13.0,85,0.00,,,0.01,Wunderground v.1.15,2013-02-19 19:34:00,
2013-02-19 14:40:00,39.9,35.8,30.00,SW,220,8.0,10.0,85,0.00,,,0.01,Wunderground v.1.15,2013-02-19 19:40:00,
2013-02-19 14:45:00,40.0,35.9,30.00,SW,223,9.0,12.0,85,0.00,,,0.01,Wunderground v.1.15,2013-02-19 19:45:00,
2013-02-19 14:50:00,39.6,35.5,30.00,SW,220,7.0,9.0,85,0.00,,,0.01,Wunderground v.1.15,2013-02-19 19:50:00,
2013-02-19 14:55:00,39.2,35.4,29.99,SW,215,7.0,9.0,86,0.00,,,0.01,Wunderground v.1.15,2013-02-19 19:55:00,
2013-02-19 15:00:00,39.0,35.5,29.99,SW,219,7.0,7.0,87,0.00,,,0.01,Wunderground v.1.15,2013-02-19 20:00:00,
2013-02-19 15:05:00,39.0,35.5,29.98,SW,220,6.0,8.0,87,0.00,,,0.01,Wunderground v.1.15,2013-02-19 20:05:00,
2013-02-19 15:10:00,39.1,35.6,29.97,SW,225,7.0,8.0,87,0.00,,,0.01,Wunderground v.1.15,2013-02-19 20:10:00,
2013-02-19 15:15:00,39.5,36.0,29.97,SW,223,9.0,9.0,87,0.00,,,0.01,Wunderground v.1.15,2013-02-19 20:15:00,
2013-02-19 15:20:00,39.9,36.3,29.97,SW,221,10.0,11.0,87,0.00,,,0.01,Wunderground v.1.15,2013-02-19 20:20:00,
2013-02-19 15:25:00,40.1,36.2,29.96,SW,217,9.0,11.0,86,0.00,,,0.01,Wunderground v.1.15,2013-02-19 20:25:00,
2013-02-19 15:30:00,40.0,36.2,29.96,SW,227,10.0,11.0,86,0.00,,,0.01,Wunderground v.1.15,2013-02-19 20:30:00,
2013-02-19 15:35:00,40.0,36.4,29.96,SW,229,9.0,11.0,87,0.00,,,0.01,Wunderground v.1.15,2013-02-19 20:35:00,
2013-02-19 15:40:00,39.9,36.3,29.95,SW,235,9.0,11.0,87,0.00,,,0.01,Wunderground v.1.15,2013-02-19 20:40:00,
2013-02-19 15:45:00,39.5,35.7,29.95,SW,227,6.0,9.0,86,0.00,,,0.01,Wunderground v.1.15,2013-02-19 20:45:00,
2013-02-19 15:50:00,39.0,35.5,29.94,SW,216,6.0,7.0,87,0.00,,,0.01,Wunderground v.1.15,2013-02-19 20:50:00,
2013-02-19 15:55:00,38.6,35.1,29.94,SSW,213,7.0,9.0,87,0.00,,,0.01,Wunderground v.1.15,2013-02-19 20:55:00,
2013-02-19 16:00:00,38.7,35.7,29.93,SW,220,8.0,10.0,89,0.00,,,0.01,Wunderground v.1.15,2013-02-19 21:00:00,
2013-02-19 16:05:00,38.9,35.9,29.93,SW,217,9.0,11.0,89,0.00,,,0.01,Wunderground v.1.15,2013-02-19 21:05:00,
2013-02-19 16:10:00,39.0,36.0,29.93,SW,220,8.0,9.0,89,0.00,,,0.01,Wunderground v.1.15,2013-02-19 21:10:00,
2013-02-19 16:15:00,39.1,36.1,29.93,SW,227,11.0,11.0,89,0.00,,,0.01,Wunderground v.1.15,2013-02-19 21:15:00,
2013-02-19 16:20:00,40.0,37.0,29.92,SW,229,12.0,15.0,89,0.00,,,0.01,Wunderground v.1.15,2013-02-19 21:20:00,
2013-02-19 16:26:00,40.5,37.5,29.92,SW,223,14.0,16.0,89,0.00,,,0.01,Wunderground v.1.15,2013-02-19 21:26:00,
2013-02-19 16:31:00,40.7,37.4,29.92,SW,226,11.0,14.0,88,0.00,,,0.01,Wunderground v.1.15,2013-02-19 21:31:00,
2013-02-19 16:36:00,40.3,37.3,29.92,SW,228,6.0,14.0,89,0.00,,,0.01,Wunderground v.1.15,2013-02-19 21:36:00,
2013-02-19 16:41:00,40.2,37.2,29.92,WSW,252,9.0,10.0,89,0.00,,,0.01,Wunderground v.1.15,2013-02-19 21:41:00,
2013-02-19 16:46:00,40.6,37.6,29.92,WSW,246,11.0,12.0,89,0.00,,,0.01,Wunderground v.1.15,2013-02-19 21:46:00,
2013-02-19 16:51:00,40.8,37.8,29.92,SW,231,10.0,12.0,89,0.00,,,0.01,Wunderground v.1.15,2013-02-19 21:51:00,
2013-02-19 16:56:00,40.8,37.8,29.91,WSW,237,9.0,13.0,89,0.00,,,0.01,Wunderground v.1.15,2013-02-19 21:56:00,
2013-02-19 17:01:00,40.9,37.9,29.91,WSW,245,9.0,11.0,89,0.00,,,0.02,Wunderground v.1.15,2013-02-19 22:01:00,
2013-02-19 17:06:00,40.9,37.9,29.91,WSW,240,10.0,11.0,89,0.00,,,0.02,Wunderground v.1.15,2013-02-19 22:06:00,
2013-02-19 17:11:00,40.6,37.9,29.91,WSW,248,7.0,9.0,90,0.00,,,0.02,Wunderground v.1.15,2013-02-19 22:11:00,
2013-02-19 17:16:00,40.4,37.7,29.90,SW,227,8.0,10.0,90,0.00,,,0.02,Wunderground v.1.15,2013-02-19 22:16:00,
2013-02-19 17:21:00,40.4,37.7,29.90,WSW,238,10.0,12.0,90,0.00,,,0.02,Wunderground v.1.15,2013-02-19 22:21:00,
2013-02-19 17:26:00,41.0,38.9,29.89,SW,232,12.0,15.0,92,0.00,,,0.02,Wunderground v.1.15,2013-02-19 22:26:00,
2013-02-19 17:31:00,41.7,39.5,29.89,SW,236,16.0,19.0,92,0.00,,,0.02,Wunderground v.1.15,2013-02-19 22:31:00,
2013-02-19 17:36:00,41.8,39.4,29.88,SW,234,13.0,19.0,91,0.00,,,0.02,Wunderground v.1.15,2013-02-19 22:36:00,
2013-02-19 17:41:00,41.5,39.1,29.87,SW,220,15.0,16.0,91,0.00,,,0.02,Wunderground v.1.15,2013-02-19 22:41:00,
2013-02-19 17:46:00,39.7,37.3,29.87,SSW,211,10.0,16.0,91,0.00,,,0.02,Wunderground v.1.15,2013-02-19 22:46:00,
2013-02-19 17:51:00,38.9,36.8,29.86,SSW,211,11.0,13.0,92,0.00,,,0.02,Wunderground v.1.15,2013-02-19 22:51:00,
2013-02-19 17:56:00,39.3,37.4,29.85,SSW,202,13.0,13.0,93,0.00,,,0.02,Wunderground v.1.15,2013-02-19 22:56:00,
2013-02-19 18:02:00,39.8,38.2,29.85,SSW,198,11.0,12.0,94,0.00,,,0.02,Wunderground v.1.15,2013-02-19 23:02:00,
2013-02-19 18:07:00,39.5,37.9,29.84,SSW,195,10.0,12.0,94,0.00,,,0.02,Wunderground v.1.15,2013-02-19 23:07:00,
2013-02-19 18:12:00,39.5,37.9,29.84,SSW,198,10.0,13.0,94,0.00,,,0.02,Wunderground v.1.15,2013-02-19 23:12:00,
2013-02-19 18:17:00,39.3,37.7,29.83,SSW,208,7.0,13.0,94,0.00,,,0.02,Wunderground v.1.15,2013-02-19 23:17:00,
2013-02-19 18:22:00,39.0,37.4,29.83,SSW,213,7.0,9.0,94,0.00,,,0.02,Wunderground v.1.15,2013-02-19 23:22:00,
2013-02-19 18:27:00,38.9,37.3,29.82,SSW,208,8.0,9.0,94,0.00,,,0.02,Wunderground v.1.15,2013-02-19 23:27:00,
2013-02-19 18:32:00,39.2,37.6,29.82,SSW,213,7.0,8.0,94,0.00,,,0.02,Wunderground v.1.15,2013-02-19 23:32:00,
2013-02-19 18:37:00,39.4,37.8,29.81,SW,218,7.0,8.0,94,0.00,,,0.02,Wunderground v.1.15,2013-02-19 23:37:00,
2013-02-19 18:42:00,39.4,37.8,29.81,SW,215,7.0,8.0,94,0.00,,,0.02,Wunderground v.1.15,2013-02-19 23:42:00,
2013-02-19 18:47:00,39.7,38.1,29.81,SW,225,7.0,8.0,94,0.00,,,0.02,Wunderground v.1.15,2013-02-19 23:47:00,
2013-02-19 18:52:00,39.6,38.0,29.81,SW,223,9.0,9.0,94,0.00,,,0.02,Wunderground v.1.15,2013-02-19 23:52:00,
2013-02-19 18:57:00,39.6,38.0,29.80,SW,215,10.0,10.0,94,0.00,,,0.03,Wunderground v.1.15,2013-02-19 23:57:00,
2013-02-19 19:02:00,39.7,38.1,29.80,SSW,208,9.0,11.0,94,0.00,,,0.03,Wunderground v.1.15,2013-02-20 00:02:00,
2013-02-19 19:07:00,39.9,38.3,29.80,SW,215,13.0,15.0,94,0.05,,,0.04,Wunderground v.1.15,2013-02-20 00:07:00,
2013-02-19 19:12:00,40.5,39.2,29.80,SSW,212,12.0,16.0,95,0.05,,,0.04,Wunderground v.1.15,2013-02-20 00:12:00,
2013-02-19 19:17:00,40.6,39.0,29.80,SW,215,14.0,16.0,94,0.08,,,0.05,Wunderground v.1.15,2013-02-20 00:17:00,
2013-02-19 19:22:00,40.5,38.9,29.79,SSW,213,14.0,16.0,94,0.09,,,0.06,Wunderground v.1.15,2013-02-20 00:22:00,
2013-02-19 19:27:00,40.6,39.0,29.78,SSW,209,16.0,16.0,94,0.09,,,0.07,Wunderground v.1.15,2013-02-20 00:27:00,
2013-02-19 19:32:00,40.6,39.0,29.78,SW,215,14.0,16.0,94,0.09,,,0.07,Wunderground v.1.15,2013-02-20 00:32:00,
2013-02-19 19:37:00,40.2,38.3,29.77,SSW,208,11.0,16.0,93,0.23,,,0.09,Wunderground v.1.15,2013-02-20 00:37:00,
2013-02-19 19:43:00,40.5,38.9,29.76,SSW,209,13.0,15.0,94,0.14,,,0.10,Wunderground v.1.15,2013-02-20 00:43:00,
2013-02-19 19:48:00,40.8,39.2,29.76,SSW,211,8.0,15.0,94,0.09,,,0.11,Wunderground v.1.15,2013-02-20 00:48:00,
2013-02-19 19:53:00,40.8,39.2,29.75,SW,214,18.0,18.0,94,0.09,,,0.11,Wunderground v.1.15,2013-02-20 00:53:00,
2013-02-19 19:58:00,41.4,39.8,29.75,SW,218,16.0,18.0,94,0.07,,,0.12,Wunderground v.1.15,2013-02-20 00:58:00,
2013-02-19 20:03:00,41.4,39.8,29.75,SSW,209,16.0,20.0,94,0.09,,,0.13,Wunderground v.1.15,2013-02-20 01:03:00,
2013-02-19 20:08:00,41.3,39.7,29.75,SW,221,17.0,20.0,94,0.19,,,0.15,Wunderground v.1.15,2013-02-20 01:08:00,
2013-02-19 20:13:00,42.1,40.8,29.75,WSW,252,15.0,21.0,95,0.20,,,0.16,Wunderground v.1.15,2013-02-20 01:13:00,
2013-02-19 20:18:00,44.2,43.1,29.78,West,267,15.0,23.0,96,1.10,,,0.21,Wunderground v.1.15,2013-02-20 01:18:00,
2013-02-19 20:23:00,44.8,43.7,29.77,WSW,249,9.0,19.0,96,0.32,,,0.27,Wunderground v.1.15,2013-02-20 01:23:00,
2013-02-19 20:28:00,44.7,43.4,29.75,WSW,250,8.0,19.0,95,0.33,,,0.30,Wunderground v.1.15,2013-02-20 01:28:00,
2013-02-19 20:33:00,45.3,44.0,29.74,West,264,7.0,13.0,95,0.12,,,0.31,Wunderground v.1.15,2013-02-20 01:33:00,
2013-02-19 20:38:00,45.5,44.2,29.73,WSW,244,20.0,22.0,95,0.12,,,0.32,Wunderground v.1.15,2013-02-20 01:38:00,
2013-02-19 20:43:00,45.4,43.8,29.72,SW,234,19.0,22.0,94,0.09,,,0.32,Wunderground v.1.15,2013-02-20 01:43:00,
2013-02-19 20:48:00,44.5,42.6,29.70,SW,226,16.0,22.0,93,0.07,,,0.33,Wunderground v.1.15,2013-02-20 01:48:00,
2013-02-19 20:53:00,43.8,41.9,29.70,SW,227,21.0,22.0,93,0.07,,,0.33,Wunderground v.1.15,2013-02-20 01:53:00,
2013-02-19 20:58:00,43.2,41.6,29.69,SW,224,19.0,22.0,94,0.05,,,0.33,Wunderground v.1.15,2013-02-20 01:58:00,
2013-02-19 21:03:00,41.4,39.5,29.70,SW,222,17.0,20.0,93,0.00,,,0.33,Wunderground v.1.15,2013-02-20 02:03:00,
2013-02-19 21:08:00,40.5,38.9,29.70,SW,218,17.0,20.0,94,0.00,,,0.34,Wunderground v.1.15,2013-02-20 02:08:00,
2013-02-19 21:14:00,40.6,39.3,29.69,SW,224,13.0,18.0,95,0.13,,,0.35,Wunderground v.1.15,2013-02-20 02:14:00,
2013-02-19 21:19:00,39.9,38.6,29.68,SW,221,14.0,18.0,95,0.10,,,0.36,Wunderground v.1.15,2013-02-20 02:19:00,
2013-02-19 21:24:00,40.6,39.3,29.67,SSW,209,17.0,20.0,95,0.15,,,0.37,Wunderground v.1.15,2013-02-20 02:24:00,
2013-02-19 21:29:00,41.5,40.4,29.67,SW,219,14.0,20.0,96,0.16,,,0.38,Wunderground v.1.15,2013-02-20 02:29:00,
2013-02-19 21:34:00,40.2,38.9,29.67,SW,223,13.0,16.0,95,0.60,,,0.40,Wunderground v.1.15,2013-02-20 02:34:00,
2013-02-19 21:39:00,41.1,39.8,29.67,WSW,238,14.0,18.0,95,0.40,,,0.43,Wunderground v.1.15,2013-02-20 02:39:00,
2013-02-19 21:44:00,42.0,40.9,29.67,SW,234,15.0,17.0,96,0.36,,,0.46,Wunderground v.1.15,2013-02-20 02:44:00,
2013-02-19 21:49:00,42.4,41.3,29.67,WSW,244,16.0,22.0,96,0.74,,,0.53,Wunderground v.1.15,2013-02-20 02:49:00,
2013-02-19 21:54:00,43.7,42.6,29.66,WSW,253,19.0,19.0,96,0.17,,,0.55,Wunderground v.1.15,2013-02-20 02:54:00,
2013-02-19 21:59:00,44.8,43.7,29.68,WSW,257,21.0,25.0,96,0.34,,,0.57,Wunderground v.1.15,2013-02-20 02:59:00,
2013-02-19 22:04:00,45.0,43.9,29.68,West,264,19.0,22.0,96,0.15,,,0.58,Wunderground v.1.15,2013-02-20 03:04:00,
2013-02-19 22:09:00,45.2,44.1,29.67,West,262,12.0,22.0,96,0.08,,,0.58,Wunderground v.1.15,2013-02-20 03:09:00,
2013-02-19 22:14:00,45.2,44.1,29.67,West,274,13.0,17.0,96,0.05,,,0.58,Wunderground v.1.15,2013-02-20 03:14:00,
2013-02-19 22:19:00,45.2,44.1,29.66,West,267,8.0,17.0,96,0.05,,,0.59,Wunderground v.1.15,2013-02-20 03:19:00,
2013-02-19 22:24:00,45.2,44.1,29.66,West,265,6.0,10.0,96,0.05,,,0.59,Wunderground v.1.15,2013-02-20 03:24:00,
2013-02-19 22:30:00,45.3,44.2,29.66,West,259,6.0,10.0,96,0.04,,,0.59,Wunderground v.1.15,2013-02-20 03:30:00,
2013-02-19 22:35:00,45.4,44.3,29.65,West,261,6.0,8.0,96,0.00,,,0.59,Wunderground v.1.15,2013-02-20 03:35:00,
2013-02-19 22:40:00,45.5,44.4,29.65,WSW,257,7.0,7.0,96,0.00,,,0.59,Wunderground v.1.15,2013-02-20 03:40:00,
2013-02-19 22:45:00,45.3,44.2,29.66,WSW,253,7.0,9.0,96,0.00,,,0.59,Wunderground v.1.15,2013-02-20 03:45:00,
2013-02-19 22:50:00,45.1,44.0,29.65,WSW,248,6.0,7.0,96,0.00,,,0.60,Wunderground v.1.15,2013-02-20 03:50:00,
2013-02-19 22:55:00,45.0,43.9,29.65,WSW,253,5.0,7.0,96,0.00,,,0.60,Wunderground v.1.15,2013-02-20 03:55:00,
2013-02-19 23:00:00,44.7,43.6,29.65,WSW,243,4.0,5.0,96,0.00,,,0.60,Wunderground v.1.15,2013-02-20 04:00:00,
2013-02-19 23:05:00,44.6,43.5,29.65,WSW,251,5.0,5.0,96,0.00,,,0.60,Wunderground v.1.15,2013-02-20 04:05:00,
2013-02-19 23:10:00,44.6,43.5,29.65,WSW,248,6.0,6.0,96,0.00,,,0.60,Wunderground v.1.15,2013-02-20 04:10:00,
2013-02-19 23:15:00,44.4,43.3,29.65,WSW,237,5.0,6.0,96,0.00,,,0.60,Wunderground v.1.15,2013-02-20 04:15:00,
2013-02-19 23:20:00,44.1,43.0,29.64,WSW,251,4.0,5.0,96,0.00,,,0.60,Wunderground v.1.15,2013-02-20 04:20:00,
2013-02-19 23:25:00,43.9,42.8,29.65,WSW,251,5.0,5.0,96,0.00,,,0.60,Wunderground v.1.15,2013-02-20 04:25:00,
2013-02-19 23:31:00,44.0,42.9,29.64,WSW,252,5.0,6.0,96,0.00,,,0.60,Wunderground v.1.15,2013-02-20 04:31:00,
2013-02-19 23:36:00,44.0,42.9,29.65,West,261,6.0,7.0,96,0.00,,,0.60,Wunderground v.1.15,2013-02-20 04:36:00,
2013-02-19 23:41:00,43.7,42.6,29.65,West,262,5.0,6.0,96,0.00,,,0.60,Wunderground v.1.15,2013-02-20 04:41:00,
2013-02-19 23:46:00,43.8,42.7,29.63,West,262,4.0,6.0,96,0.00,,,0.60,Wunderground v.1.15,2013-02-20 04:46:00,
2013-02-19 23:51:00,43.8,42.7,29.63,West,261,4.0,6.0,96,0.00,,,0.60,Wunderground v.1.15,2013-02-20 04:51:00,
2013-02-19 23:56:00,43.7,42.6,29.62,West,273,4.0,6.0,96,0.00,,,0.60,Wunderground v.1.15,2013-02-20 04:56:00,